createdAt,value
2023-03-22T00:01:45.504Z,64.70
2023-03-22T00:07:49.654Z,59.60
2023-03-22T00:13:51.852Z,66.10
2023-03-22T00:19:54.031Z,66.30
2023-03-22T00:25:56.494Z,66.60
2023-03-22T00:31:57.964Z,68.30
2023-03-22T00:38:13.404Z,61.00
2023-03-22T00:44:14.951Z,65.40
2023-03-22T00:50:19.637Z,61.90
2023-03-22T00:56:24.819Z,62.20
2023-03-22T01:02:34.347Z,72.10
2023-03-22T01:08:38.239Z,63.80
2023-03-22T01:14:40.161Z,51.20
2023-03-22T01:20:42.053Z,53.50
2023-03-22T01:26:46.180Z,79.70
2023-03-22T01:32:47.836Z,67.70
2023-03-22T01:38:49.888Z,65.00
2023-03-22T01:45:26.789Z,55.50
2023-03-22T01:51:28.474Z,69.20
2023-03-22T01:57:53.924Z,67.40
2023-03-22T02:04:33.298Z,54.10
2023-03-22T02:10:36.374Z,49.00
2023-03-22T02:16:50.724Z,63.80
2023-03-22T02:23:05.215Z,56.10
2023-03-22T02:29:34.871Z,60.90
2023-03-22T02:35:53.467Z,60.30
2023-03-22T02:42:14.122Z,61.10
2023-03-22T02:48:18.448Z,57.90
2023-03-22T02:54:45.302Z,49.80
2023-03-22T03:00:50.341Z,45.50
2023-03-22T03:06:58.330Z,52.90
2023-03-22T03:13:00.240Z,46.00
2023-03-22T03:19:15.777Z,47.30
2023-03-22T03:26:04.287Z,39.80
2023-03-22T03:32:19.340Z,33.90
2023-03-22T03:38:25.715Z,32.80
2023-03-22T03:50:43.231Z,36.50
2023-03-22T03:56:47.075Z,42.30
2023-03-22T04:02:48.936Z,51.20
2023-03-22T04:09:12.946Z,44.00
2023-03-22T04:15:17.598Z,42.70
2023-03-22T04:21:22.234Z,40.70
2023-03-22T04:27:35.195Z,42.10
2023-03-22T04:33:46.202Z,42.50
2023-03-22T04:39:59.856Z,52.60
2023-03-22T04:46:12.122Z,61.60
2023-03-22T04:52:18.444Z,53.50
2023-03-22T04:58:27.115Z,43.70
2023-03-22T05:04:28.685Z,41.00
2023-03-22T05:10:39.727Z,35.80
2023-03-22T05:16:41.565Z,35.70
2023-03-22T05:22:44.809Z,38.00
2023-03-22T05:28:46.844Z,43.20
2023-03-22T05:34:55.489Z,41.70
2023-03-22T05:41:02.951Z,38.30
2023-03-22T05:47:06.217Z,35.90
2023-03-22T05:53:11.188Z,35.80
2023-03-22T05:59:34.146Z,38.10
2023-03-22T06:05:36.780Z,37.10
2023-03-22T06:11:38.541Z,36.10
2023-03-22T06:17:41.693Z,33.40
2023-03-22T06:23:44.535Z,32.60
2023-03-22T06:29:50.073Z,33.50
2023-03-22T06:35:53.506Z,30.00
2023-03-22T06:42:02.761Z,34.00
2023-03-22T06:48:04.885Z,38.50
2023-03-22T06:54:12.661Z,35.00
2023-03-22T07:00:15.292Z,41.30
2023-03-22T07:06:16.875Z,37.90
2023-03-22T07:12:21.808Z,36.20
2023-03-22T07:18:24.806Z,34.90
2023-03-22T07:24:26.356Z,41.00
2023-03-22T07:30:28.366Z,40.20
2023-03-22T07:36:31.028Z,45.60
2023-03-22T07:42:33.939Z,42.90
2023-03-22T07:48:57.902Z,45.40
2023-03-22T07:55:18.168Z,38.90
2023-03-22T08:01:20.864Z,36.80
2023-03-22T08:07:36.923Z,32.50
2023-03-22T08:13:38.859Z,33.00
2023-03-22T08:19:43.125Z,32.20
2023-03-22T08:25:46.315Z,36.40
2023-03-22T08:31:48.303Z,28.80
2023-03-22T08:37:53.996Z,26.90
2023-03-22T08:43:56.858Z,26.40
2023-03-22T08:49:58.385Z,26.60
2023-03-22T08:56:09.383Z,29.20
2023-03-22T09:02:26.289Z,31.00
2023-03-22T09:08:29.270Z,26.50
2023-03-22T09:14:38.220Z,31.70
2023-03-22T09:20:40.673Z,31.70
2023-03-22T09:26:43.057Z,31.30
2023-03-22T09:32:44.731Z,37.60
2023-03-22T09:38:49.330Z,30.50
2023-03-22T09:44:52.030Z,31.20
2023-03-22T09:50:57.223Z,35.10
2023-03-22T09:57:02.353Z,33.80
2023-03-22T10:03:28.523Z,30.10
2023-03-22T10:09:48.667Z,27.70
2023-03-22T10:15:55.158Z,27.20
2023-03-22T10:21:57.493Z,26.00
2023-03-22T10:27:59.054Z,25.60
2023-03-22T10:34:05.537Z,26.20
2023-03-22T10:40:35.045Z,24.40
2023-03-22T10:46:38.869Z,24.00
2023-03-22T10:52:47.268Z,23.00
2023-03-22T10:58:49.986Z,20.90
2023-03-22T11:04:53.877Z,20.10
2023-03-22T11:10:59.645Z,21.90
2023-03-22T11:17:14.701Z,14.30
2023-03-22T11:23:17.327Z,15.10
2023-03-22T11:29:18.855Z,14.50
2023-03-22T11:41:48.430Z,10.50
2023-03-22T11:47:50.603Z,11.90
2023-03-22T11:53:56.509Z,13.20
2023-03-22T12:00:19.309Z,10.90
2023-03-22T12:06:27.481Z,7.90
2023-03-22T12:12:36.427Z,8.40
2023-03-22T12:18:44.311Z,8.00
2023-03-22T12:24:46.007Z,8.20
2023-03-22T12:30:50.850Z,10.20
2023-03-22T12:36:55.766Z,9.50
2023-03-22T12:43:20.765Z,11.90
2023-03-22T12:49:28.607Z,8.60
2023-03-22T12:55:33.199Z,7.90
2023-03-22T13:02:01.906Z,7.60
2023-03-22T13:08:04.961Z,6.70
2023-03-22T13:14:06.723Z,5.80
2023-03-22T13:20:11.548Z,6.80
2023-03-22T13:26:14.660Z,5.00
2023-03-22T13:32:53.335Z,7.20
2023-03-22T13:39:04.598Z,5.00
2023-03-22T13:45:32.693Z,7.00
2023-03-22T13:51:34.808Z,5.80
2023-03-22T13:57:58.274Z,3.90
2023-03-22T14:04:03.360Z,5.60
2023-03-22T14:10:44.624Z,5.80
2023-03-22T14:16:48.909Z,4.50
